Time;durP1;ratioP1;P1;durP2;ratioP2;P2;SDS_P1;SDS_P2;PMS_P1;PMS_P2;Temp;Humidity;BMP_temperature;BMP_pressure;BME280_temperature;BME280_humidity;BME280_pressure;Samples;Min_cycle;Max_cycle;Signal;HPM_P1;HPM_P2
2021/12/25 00:00:19;;;;;;;3.65;1.20;;;-1.30;99.90;;;;;;5064986;28;20195;-45
2021/12/25 00:02:44;;;;;;;1.73;0.80;;;-1.30;99.90;;;;;;5054094;28;20021;-46
2021/12/25 00:05:12;;;;;;;2.47;0.50;;;-1.30;99.90;;;;;;5053515;28;20023;-45
2021/12/25 00:07:37;;;;;;;2.65;0.70;;;-1.40;99.90;;;;;;5055316;28;20060;-46
2021/12/25 00:10:04;;;;;;;3.92;1.02;;;-1.40;99.90;;;;;;5060278;28;20067;-45
2021/12/25 00:12:31;;;;;;;2.25;0.80;;;-1.40;99.90;;;;;;5053122;28;20025;-46
2021/12/25 00:14:56;;;;;;;3.10;0.68;;;-1.40;99.90;;;;;;5053649;28;20471;-45
2021/12/25 00:17:22;;;;;;;0.52;0.50;;;-1.40;99.90;;;;;;5053534;28;20054;-45
2021/12/25 00:19:48;;;;;;;2.03;0.68;;;-1.40;99.90;;;;;;5050720;28;20024;-45
2021/12/25 00:22:14;;;;;;;1.65;0.90;;;-1.40;99.90;;;;;;5059125;28;20039;-46
2021/12/25 00:24:43;;;;;;;3.20;0.85;;;-1.40;99.90;;;;;;5066136;28;20100;-45
2021/12/25 00:28:01;;;;;;;3.05;0.80;;;-1.50;99.90;;;;;;5066637;28;20028;-47
2021/12/25 00:35:12;;;;;;;1.02;0.50;;;-1.50;99.90;;;;;;5068258;28;20079;-46
2021/12/25 00:37:38;;;;;;;2.22;0.93;;;-1.50;99.90;;;;;;5069887;28;20320;-44
2021/12/25 00:40:05;;;;;;;1.20;0.77;;;-1.50;99.90;;;;;;5070007;28;20020;-45
2021/12/25 00:42:31;;;;;;;3.22;0.73;;;-1.60;99.90;;;;;;5068583;28;20020;-46
2021/12/25 00:44:56;;;;;;;1.70;0.70;;;-1.60;99.90;;;;;;5064513;28;20032;-45
2021/12/25 00:47:22;;;;;;;0.50;0.50;;;-1.60;99.90;;;;;;5063090;28;20500;-46
2021/12/25 00:49:47;;;;;;;4.65;0.80;;;-1.60;99.90;;;;;;5070408;28;20152;-45
2021/12/25 00:52:13;;;;;;;5.15;1.00;;;-1.70;99.90;;;;;;5066014;28;20029;-46
2021/12/25 00:54:39;;;;;;;1.33;0.77;;;-1.80;99.90;;;;;;5070324;28;20031;-45
2021/12/25 00:57:04;;;;;;;0.80;0.80;;;-1.80;99.90;;;;;;5064824;28;20203;-45
2021/12/25 00:59:30;;;;;;;1.52;1.00;;;-1.80;99.90;;;;;;5068724;28;20487;-46
2021/12/25 01:01:56;;;;;;;4.97;0.63;;;-1.80;99.90;;;;;;5071563;28;20033;-46
2021/12/25 01:04:21;;;;;;;1.25;0.80;;;-1.80;99.90;;;;;;5069788;28;20023;-46
2021/12/25 01:06:47;;;;;;;0.95;0.70;;;-1.80;99.90;;;;;;5060804;28;20390;-45
2021/12/25 01:09:12;;;;;;;3.80;0.90;;;-1.90;99.90;;;;;;5052110;28;20394;-44
2021/12/25 01:11:38;;;;;;;3.10;1.38;;;-1.90;99.90;;;;;;5053467;28;20033;-47
2021/12/25 01:14:19;;;;;;;5.95;1.02;;;-1.90;99.90;;;;;;5066642;28;20180;-46
2021/12/25 01:28:06;;;;;;;7.22;0.70;;;-1.90;99.90;;;;;;5065540;28;20586;-48
2021/12/25 01:30:45;;;;;;;1.20;0.70;;;-1.80;99.90;;;;;;5070992;28;20497;-45
2021/12/25 01:36:14;;;;;;;1.40;0.60;;;-1.90;99.90;;;;;;5069364;28;20044;-47
2021/12/25 01:49:26;;;;;;;1.58;0.70;;;-2.00;99.90;;;;;;5063466;28;20406;-45
2021/12/25 01:51:52;;;;;;;1.85;0.68;;;-2.00;99.90;;;;;;5067850;28;20020;-46
2021/12/25 01:54:17;;;;;;;3.17;0.70;;;-2.00;99.90;;;;;;5069114;28;20040;-47
2021/12/25 01:56:43;;;;;;;2.55;0.68;;;-2.00;99.90;;;;;;5069233;28;20543;-45
2021/12/25 01:59:09;;;;;;;1.23;0.60;;;-2.10;99.90;;;;;;5070522;28;20032;-45
2021/12/25 02:01:34;;;;;;;1.52;0.80;;;-2.10;99.90;;;;;;5082359;28;20074;-45
2021/12/25 02:04:00;;;;;;;1.30;0.70;;;-2.10;99.90;;;;;;5069275;28;20379;-45
2021/12/25 02:06:26;;;;;;;0.77;0.55;;;-2.10;99.90;;;;;;5069575;28;20079;-45
2021/12/25 02:08:52;;;;;;;3.28;0.70;;;-2.10;99.90;;;;;;5069054;28;20025;-47
2021/12/25 02:11:17;;;;;;;1.60;0.95;;;-2.10;99.90;;;;;;5068676;28;20029;-46
2021/12/25 02:13:43;;;;;;;2.08;0.80;;;-2.20;99.90;;;;;;5079261;28;20066;-46
2021/12/25 02:16:16;;;;;;;0.75;0.60;;;-2.20;99.90;;;;;;5069276;28;20024;-46
2021/12/25 02:21:18;;;;;;;2.38;0.70;;;-2.30;99.90;;;;;;5069577;28;20533;-46
2021/12/25 02:23:43;;;;;;;1.13;0.50;;;-2.40;99.90;;;;;;5069266;28;20029;-46
2021/12/25 02:26:09;;;;;;;1.15;0.77;;;-2.40;99.90;;;;;;5069320;28;20074;-46
2021/12/25 02:28:35;;;;;;;1.80;0.90;;;-2.40;99.90;;;;;;5067724;28;20036;-45
2021/12/25 02:31:07;;;;;;;4.25;0.80;;;-2.50;99.90;;;;;;5076578;28;20021;-45
2021/12/25 02:33:33;;;;;;;2.90;0.60;;;-2.50;99.90;;;;;;5089777;28;20030;-45
2021/12/25 02:36:00;;;;;;;2.88;1.67;;;-2.60;99.90;;;;;;5089159;28;20408;-46
2021/12/25 02:38:27;;;;;;;0.40;0.40;;;-2.60;99.90;;;;;;5086220;28;20024;-45
2021/12/25 02:40:53;;;;;;;7.22;0.90;;;-2.60;99.90;;;;;;5069159;28;20028;-45
2021/12/25 02:43:18;;;;;;;3.30;0.60;;;-2.60;99.90;;;;;;5068642;28;20028;-45
2021/12/25 02:45:45;;;;;;;4.35;0.75;;;-2.70;99.90;;;;;;5068799;28;20021;-47
2021/12/25 02:48:14;;;;;;;2.40;0.80;;;-2.70;99.90;;;;;;5067771;28;20025;-45
2021/12/25 02:50:40;;;;;;;4.82;0.70;;;-2.70;99.90;;;;;;5068653;28;20082;-48
2021/12/25 02:53:08;;;;;;;1.13;0.73;;;-2.70;99.90;;;;;;5068507;28;20036;-47
2021/12/25 02:55:35;;;;;;;0.75;0.70;;;-2.80;99.90;;;;;;5068386;28;20016;-45
2021/12/25 02:58:01;;;;;;;2.85;1.55;;;-2.80;99.90;;;;;;5067622;28;20056;-45
2021/12/25 03:00:31;;;;;;;0.85;0.65;;;-2.80;99.90;;;;;;5069990;28;20071;-45
2021/12/25 03:03:00;;;;;;;1.63;0.80;;;-2.90;99.90;;;;;;5085660;28;20031;-45
2021/12/25 03:05:25;;;;;;;3.95;0.90;;;-2.80;99.90;;;;;;5088580;28;20031;-46
2021/12/25 03:07:51;;;;;;;2.17;0.73;;;-2.90;99.90;;;;;;5088091;28;20028;-45
2021/12/25 03:10:18;;;;;;;3.42;0.85;;;-2.90;99.90;;;;;;5080956;28;20426;-45
2021/12/25 03:13:05;;;;;;;1.52;0.80;;;-2.90;99.90;;;;;;5068067;28;20478;-45
2021/12/25 03:15:41;;;;;;;5.22;0.75;;;-3.00;99.90;;;;;;5067876;28;20374;-45
2021/12/25 03:18:08;;;;;;;2.50;0.90;;;-3.00;99.90;;;;;;5068126;28;20021;-45
2021/12/25 03:20:34;;;;;;;2.80;0.88;;;-3.00;99.90;;;;;;5067966;28;20455;-45
2021/12/25 03:23:00;;;;;;;2.55;0.98;;;-3.00;99.90;;;;;;5068271;28;20199;-46
2021/12/25 03:25:25;;;;;;;0.95;0.70;;;-3.00;99.90;;;;;;5068161;28;20569;-45
2021/12/25 03:27:51;;;;;;;2.63;0.80;;;-3.10;99.90;;;;;;5067346;28;20036;-45
2021/12/25 03:30:21;;;;;;;1.58;0.80;;;-3.10;99.90;;;;;;5073483;28;20023;-45
2021/12/25 03:32:47;;;;;;;1.15;0.82;;;-3.10;99.90;;;;;;5083744;28;20034;-46
2021/12/25 03:35:14;;;;;;;2.08;0.73;;;-3.10;99.90;;;;;;5088566;28;20024;-45
2021/12/25 03:37:39;;;;;;;4.00;1.55;;;-3.20;99.90;;;;;;5087739;28;20104;-45
2021/12/25 03:40:07;;;;;;;1.55;0.63;;;-3.20;99.90;;;;;;5088174;28;20322;-45
2021/12/25 03:42:32;;;;;;;5.57;1.05;;;-3.30;99.90;;;;;;5070070;28;20028;-45
2021/12/25 03:44:58;;;;;;;1.02;0.57;;;-3.30;99.90;;;;;;5066350;28;20118;-46
2021/12/25 03:47:37;;;;;;;1.38;0.80;;;-3.30;99.90;;;;;;5066239;28;20025;-45
2021/12/25 03:58:22;;;;;;;1.65;0.85;;;-3.40;99.90;;;;;;5067302;28;20121;-45
2021/12/25 04:00:49;;;;;;;2.20;0.80;;;-3.40;99.90;;;;;;5075824;28;20047;-46
2021/12/25 04:03:24;;;;;;;6.28;0.90;;;-3.40;99.90;;;;;;5069040;28;20090;-45
2021/12/25 04:05:50;;;;;;;5.78;0.98;;;-3.40;99.90;;;;;;5067023;28;20323;-46
2021/12/25 04:08:19;;;;;;;1.77;0.80;;;-3.40;99.90;;;;;;5066625;28;20025;-45
2021/12/25 04:10:47;;;;;;;1.40;0.83;;;-3.50;99.90;;;;;;5067274;28;20029;-45
2021/12/25 04:13:14;;;;;;;3.50;1.20;;;-3.50;99.90;;;;;;5067142;28;20036;-46
2021/12/25 04:15:41;;;;;;;4.75;1.02;;;-3.50;99.90;;;;;;5067392;28;20398;-45
2021/12/25 04:18:07;;;;;;;1.88;1.20;;;-3.50;99.90;;;;;;5065355;28;20208;-47
2021/12/25 04:20:33;;;;;;;2.03;1.00;;;-3.60;99.90;;;;;;5067396;28;20028;-45
2021/12/25 04:23:04;;;;;;;6.22;0.95;;;-3.60;99.90;;;;;;5067032;28;20395;-46
2021/12/25 04:25:32;;;;;;;1.35;0.93;;;-3.60;99.90;;;;;;5065908;28;20444;-48
2021/12/25 04:28:06;;;;;;;1.30;1.10;;;-3.70;99.90;;;;;;5066536;28;20119;-47
2021/12/25 04:30:44;;;;;;;2.70;0.93;;;-3.70;99.90;;;;;;5072477;28;20060;-45
2021/12/25 04:42:34;;;;;;;1.40;0.98;;;-3.70;99.90;;;;;;5077678;28;20055;-46
2021/12/25 05:03:32;;;;;;;3.45;0.90;;;-3.90;99.90;;;;;;5085664;28;20546;-45
2021/12/25 05:05:57;;;;;;;4.32;1.00;;;-3.90;99.90;;;;;;5046819;28;20663;-45
2021/12/25 05:08:23;;;;;;;2.60;1.05;;;-3.90;99.90;;;;;;5045039;28;20111;-47
2021/12/25 05:10:49;;;;;;;4.80;1.27;;;-4.00;99.90;;;;;;5047000;28;20083;-45
2021/12/25 05:13:14;;;;;;;3.13;1.40;;;-4.00;99.90;;;;;;5047373;28;20470;-45
2021/12/25 05:15:40;;;;;;;2.33;1.27;;;-4.00;99.90;;;;;;5063243;28;20033;-46
2021/12/25 05:18:06;;;;;;;1.33;1.00;;;-4.10;99.90;;;;;;5065005;28;20024;-44
2021/12/25 05:20:31;;;;;;;1.88;1.05;;;-4.10;99.90;;;;;;5069391;28;20023;-45
2021/12/25 05:22:57;;;;;;;2.55;1.48;;;-4.10;99.90;;;;;;5069979;28;20120;-45
2021/12/25 05:25:23;;;;;;;2.58;1.30;;;-4.20;99.90;;;;;;5065564;28;20053;-44
2021/12/25 05:27:49;;;;;;;1.48;0.95;;;-4.20;99.90;;;;;;5049516;28;20116;-44
2021/12/25 05:30:16;;;;;;;3.15;1.23;;;-4.20;99.90;;;;;;5075906;28;20020;-47
2021/12/25 05:32:41;;;;;;;2.75;1.45;;;-4.20;99.90;;;;;;5085424;28;20060;-46
2021/12/25 05:35:07;;;;;;;3.55;1.55;;;-4.30;99.90;;;;;;5084545;28;20063;-46
2021/12/25 05:37:33;;;;;;;2.35;1.08;;;-4.30;99.90;;;;;;5067972;28;20056;-45
2021/12/25 05:40:00;;;;;;;2.47;1.25;;;-4.30;99.90;;;;;;5061913;28;20075;-45
2021/12/25 05:42:26;;;;;;;1.50;1.00;;;-4.30;99.90;;;;;;5084833;28;20021;-46
2021/12/25 05:44:52;;;;;;;2.80;1.20;;;-4.30;99.90;;;;;;5068872;28;20536;-45
2021/12/25 05:47:18;;;;;;;8.50;1.05;;;-4.40;99.90;;;;;;5068136;28;20294;-45
2021/12/25 05:49:43;;;;;;;2.38;1.25;;;-4.40;99.90;;;;;;5097357;28;20514;-45
2021/12/25 05:52:09;;;;;;;1.88;1.10;;;-4.40;99.90;;;;;;5070077;28;20115;-45
2021/12/25 05:54:35;;;;;;;1.73;1.23;;;-4.40;99.90;;;;;;5069374;28;20115;-45
2021/12/25 05:57:01;;;;;;;4.15;1.17;;;-4.40;99.90;;;;;;5069947;28;20031;-46
2021/12/25 05:59:26;;;;;;;4.72;1.45;;;-4.40;99.90;;;;;;5068667;28;20119;-46
2021/12/25 06:01:52;;;;;;;2.30;1.27;;;-4.40;99.90;;;;;;5072148;28;20573;-44
2021/12/25 06:04:17;;;;;;;2.03;1.13;;;-4.50;99.90;;;;;;5058448;28;20119;-45
2021/12/25 06:06:43;;;;;;;3.22;1.35;;;-4.50;99.90;;;;;;5068374;28;20465;-45
2021/12/25 06:09:08;;;;;;;4.05;1.08;;;-4.50;99.90;;;;;;5066027;28;20021;-44
2021/12/25 06:11:36;;;;;;;1.40;0.90;;;-4.50;99.90;;;;;;5055818;28;20024;-45
2021/12/25 06:14:10;;;;;;;2.15;1.38;;;-4.50;99.90;;;;;;5058631;28;20009;-45
2021/12/25 06:16:36;;;;;;;2.50;1.10;;;-4.50;99.90;;;;;;5061904;28;20067;-45
2021/12/25 06:19:02;;;;;;;1.25;0.80;;;-4.50;99.90;;;;;;5062027;28;20029;-45
2021/12/25 06:21:27;;;;;;;1.33;1.05;;;-4.60;99.90;;;;;;5054018;28;20029;-45
2021/12/25 06:23:53;;;;;;;3.28;1.25;;;-4.60;99.90;;;;;;5058630;28;20020;-45
2021/12/25 06:26:18;;;;;;;4.03;1.30;;;-4.60;99.90;;;;;;5056548;28;20024;-45
2021/12/25 06:28:44;;;;;;;1.52;1.13;;;-4.60;99.90;;;;;;5055482;28;20020;-45
2021/12/25 06:31:10;;;;;;;2.53;0.90;;;-4.60;99.90;;;;;;5088014;27;20498;-45
2021/12/25 06:33:35;;;;;;;2.35;1.02;;;-4.60;99.90;;;;;;5057570;28;20029;-45
2021/12/25 06:36:01;;;;;;;1.90;0.93;;;-4.60;99.90;;;;;;5063956;28;20811;-45
2021/12/25 06:38:26;;;;;;;4.65;1.58;;;-4.60;99.90;;;;;;5063932;28;20036;-45
2021/12/25 06:40:52;;;;;;;1.85;0.93;;;-4.60;99.90;;;;;;5049883;28;20032;-45
2021/12/25 06:43:17;;;;;;;1.10;0.98;;;-4.70;99.90;;;;;;5049945;28;20489;-45
2021/12/25 06:45:43;;;;;;;2.15;0.88;;;-4.70;99.90;;;;;;5061520;28;20517;-45
2021/12/25 06:48:08;;;;;;;2.40;1.00;;;-4.70;99.90;;;;;;5067641;28;20081;-45
2021/12/25 06:50:34;;;;;;;2.33;1.05;;;-4.70;99.90;;;;;;5068594;28;20028;-45
2021/12/25 06:52:59;;;;;;;1.83;0.90;;;-4.70;99.90;;;;;;5068572;28;20020;-44
2021/12/25 06:55:25;;;;;;;2.47;0.90;;;-4.70;99.90;;;;;;5068485;28;20021;-44
2021/12/25 06:57:55;;;;;;;1.77;1.00;;;-4.80;99.90;;;;;;5067990;28;20028;-45
2021/12/25 07:00:22;;;;;;;1.85;0.98;;;-4.80;99.90;;;;;;5067701;28;20408;-45
2021/12/25 07:02:48;;;;;;;2.65;1.30;;;-4.80;99.90;;;;;;5068739;28;20033;-45
2021/12/25 07:05:14;;;;;;;1.80;0.90;;;-4.90;99.90;;;;;;5068260;28;20027;-45
2021/12/25 07:07:40;;;;;;;2.72;1.35;;;-4.90;99.90;;;;;;5067858;28;20313;-45
2021/12/25 07:10:06;;;;;;;4.55;1.20;;;-4.90;99.90;;;;;;5069763;28;20021;-44
2021/12/25 07:12:36;;;;;;;5.38;1.30;;;-4.90;99.90;;;;;;5079757;28;20016;-44
2021/12/25 07:15:04;;;;;;;2.95;1.35;;;-5.00;99.90;;;;;;5087853;28;20097;-47
2021/12/25 07:17:29;;;;;;;4.25;1.10;;;-4.90;99.90;;;;;;5070524;28;20336;-45
2021/12/25 07:19:55;;;;;;;9.65;1.40;;;-5.00;99.90;;;;;;5068372;28;20032;-44
2021/12/25 07:22:20;;;;;;;1.33;1.20;;;-5.00;99.90;;;;;;5068067;28;20326;-45
2021/12/25 07:24:46;;;;;;;3.85;1.20;;;-5.00;99.90;;;;;;5068007;28;20414;-45
2021/12/25 07:27:11;;;;;;;1.75;1.02;;;-5.00;99.90;;;;;;5067376;28;20063;-45
2021/12/25 07:29:37;;;;;;;1.42;1.05;;;-5.00;99.90;;;;;;5073126;28;20473;-45
2021/12/25 07:32:03;;;;;;;7.45;1.33;;;-5.00;99.90;;;;;;5079060;28;20077;-44
2021/12/25 07:34:29;;;;;;;5.40;1.20;;;-5.00;99.90;;;;;;5088224;28;20477;-45
2021/12/25 07:36:55;;;;;;;4.93;1.33;;;-5.00;99.90;;;;;;5081755;28;20029;-46
2021/12/25 07:39:20;;;;;;;5.00;1.90;;;-5.00;99.90;;;;;;5066916;28;20415;-46
2021/12/25 07:41:46;;;;;;;5.22;1.20;;;-5.00;99.90;;;;;;5065458;28;20025;-45
2021/12/25 07:44:12;;;;;;;3.17;1.30;;;-5.00;99.90;;;;;;5066996;28;20103;-45
2021/12/25 07:46:38;;;;;;;3.55;1.42;;;-5.00;99.90;;;;;;5067130;28;20032;-46
2021/12/25 07:49:04;;;;;;;34.38;6.10;;;-4.90;99.90;;;;;;5067437;28;20101;-45
2021/12/25 07:51:30;;;;;;;10.57;3.40;;;-4.90;99.90;;;;;;5067201;28;20025;-46
2021/12/25 07:53:56;;;;;;;9.95;2.30;;;-4.90;99.90;;;;;;5067704;28;20066;-45
2021/12/25 07:56:25;;;;;;;5.30;1.67;;;-4.90;99.90;;;;;;5067825;28;20355;-46
2021/12/25 07:58:51;;;;;;;11.48;2.60;;;-4.90;99.90;;;;;;5066557;28;20024;-45
2021/12/25 08:01:17;;;;;;;8.02;1.90;;;-5.00;99.90;;;;;;5076939;28;20024;-45
2021/12/25 08:03:43;;;;;;;6.63;1.67;;;-5.00;99.90;;;;;;5068412;28;20028;-45
2021/12/25 08:06:08;;;;;;;3.25;1.90;;;-4.90;99.90;;;;;;5058543;28;20389;-44
2021/12/25 08:08:34;;;;;;;5.45;1.70;;;-4.90;99.90;;;;;;5065144;28;20481;-44
2021/12/25 08:11:00;;;;;;;6.90;3.67;;;-5.00;99.90;;;;;;5066237;28;20063;-46
2021/12/25 08:13:25;;;;;;;3.50;1.67;;;-4.90;99.90;;;;;;5065962;28;20113;-45
2021/12/25 08:15:51;;;;;;;3.70;1.85;;;-4.90;99.90;;;;;;5067019;28;20601;-45
2021/12/25 08:18:17;;;;;;;5.82;2.53;;;-4.90;99.90;;;;;;5066648;28;20021;-45
2021/12/25 08:20:42;;;;;;;7.35;2.20;;;-5.00;99.90;;;;;;5067708;28;20020;-48
2021/12/25 08:23:08;;;;;;;3.78;1.73;;;-5.00;99.90;;;;;;5064886;28;20039;-45
2021/12/25 08:25:34;;;;;;;5.65;2.15;;;-5.00;99.90;;;;;;5049329;28;20206;-44
2021/12/25 08:28:00;;;;;;;5.25;3.47;;;-5.00;99.90;;;;;;5063213;28;20024;-45
2021/12/25 08:30:26;;;;;;;4.88;2.28;;;-5.00;99.90;;;;;;5074417;28;20028;-45
2021/12/25 08:32:57;;;;;;;3.47;1.90;;;-5.00;99.90;;;;;;5083150;28;20024;-45
2021/12/25 08:35:23;;;;;;;4.47;2.20;;;-5.00;99.90;;;;;;5068354;28;20021;-45
2021/12/25 08:37:49;;;;;;;4.95;2.72;;;-4.90;99.90;;;;;;5065989;28;20147;-45
2021/12/25 08:40:15;;;;;;;5.45;2.58;;;-4.90;99.90;;;;;;5066340;28;20139;-46
2021/12/25 08:42:46;;;;;;;6.32;3.83;;;-4.90;99.90;;;;;;5075287;28;20031;-45
2021/12/25 08:45:38;;;;;;;6.18;2.42;;;-4.90;99.90;;;;;;5083059;28;20237;-44
2021/12/25 08:48:00;;;;;;;8.52;3.22;;;-4.80;99.90;;;;;;5074487;28;20508;-45
2021/12/25 08:50:26;;;;;;;6.57;3.00;;;-4.80;99.90;;;;;;5066432;28;20119;-46
2021/12/25 08:52:52;;;;;;;6.05;2.80;;;-4.80;99.90;;;;;;5060553;28;20067;-45
2021/12/25 08:55:18;;;;;;;7.05;3.92;;;-4.80;99.90;;;;;;5069582;28;20489;-46
2021/12/25 08:57:43;;;;;;;9.20;2.85;;;-4.80;99.90;;;;;;5064218;28;20013;-46
2021/12/25 09:00:10;;;;;;;4.32;2.72;;;-4.80;99.90;;;;;;5072072;28;20021;-46
2021/12/25 09:02:35;;;;;;;4.50;2.35;;;-4.80;99.90;;;;;;5073492;28;20052;-46
2021/12/25 09:05:01;;;;;;;3.85;1.77;;;-4.70;99.90;;;;;;5069962;28;20137;-45
2021/12/25 09:07:27;;;;;;;4.50;2.08;;;-4.70;99.90;;;;;;5067543;28;20067;-44
2021/12/25 09:09:52;;;;;;;6.10;1.70;;;-4.70;99.90;;;;;;5080286;28;20608;-47
2021/12/25 09:12:20;;;;;;;4.10;1.80;;;-4.70;99.90;;;;;;5069160;28;20282;-47
2021/12/25 09:14:45;;;;;;;3.83;2.22;;;-4.70;99.90;;;;;;5070561;28;20035;-46
2021/12/25 09:17:13;;;;;;;6.15;2.38;;;-4.70;99.90;;;;;;5069806;28;20444;-45
2021/12/25 09:19:38;;;;;;;4.22;2.65;;;-4.70;99.90;;;;;;5070474;28;20025;-48
2021/12/25 09:22:08;;;;;;;6.60;2.33;;;-4.70;99.90;;;;;;5070011;28;20051;-45
2021/12/25 09:24:34;;;;;;;4.70;2.40;;;-4.70;99.90;;;;;;5069996;28;20032;-46
2021/12/25 09:27:00;;;;;;;3.65;1.95;;;-4.60;99.90;;;;;;5069965;28;20020;-45
2021/12/25 09:29:25;;;;;;;4.45;2.47;;;-4.70;99.90;;;;;;5073488;28;20115;-47
2021/12/25 09:31:51;;;;;;;7.00;2.67;;;-4.70;99.90;;;;;;5081005;28;20483;-48
2021/12/25 09:34:16;;;;;;;4.20;2.40;;;-4.60;99.90;;;;;;5070500;28;20024;-46
2021/12/25 09:36:42;;;;;;;5.57;2.05;;;-4.70;99.90;;;;;;5070229;28;20025;-45
2021/12/25 09:39:08;;;;;;;7.70;2.40;;;-4.70;99.90;;;;;;5069518;28;20029;-48
2021/12/25 09:41:34;;;;;;;3.22;1.85;;;-4.60;99.90;;;;;;5069781;28;20032;-45
2021/12/25 09:44:01;;;;;;;18.30;2.35;;;-4.60;99.90;;;;;;5069832;28;20024;-45
2021/12/25 09:46:27;;;;;;;4.50;2.13;;;-4.60;99.90;;;;;;5069856;28;20052;-45
2021/12/25 09:48:52;;;;;;;3.25;2.33;;;-4.50;99.90;;;;;;5069339;28;20067;-45
2021/12/25 09:51:18;;;;;;;2.67;1.65;;;-4.60;99.90;;;;;;5069685;28;20036;-46
2021/12/25 09:53:59;;;;;;;3.35;2.15;;;-4.50;99.90;;;;;;5069814;28;20027;-45
2021/12/25 09:56:25;;;;;;;3.65;1.52;;;-4.40;99.90;;;;;;5069823;28;20025;-45
2021/12/25 09:58:51;;;;;;;4.57;1.80;;;-4.40;99.90;;;;;;5068851;28;20386;-46
2021/12/25 10:01:38;;;;;;;8.00;2.75;;;-4.40;99.90;;;;;;5079727;28;20028;-45
2021/12/25 10:04:06;;;;;;;3.33;1.73;;;-4.30;99.90;;;;;;5068415;28;20107;-46
2021/12/25 10:06:37;;;;;;;7.18;2.20;;;-4.30;99.90;;;;;;5068521;28;20479;-46
2021/12/25 10:09:17;;;;;;;4.28;2.42;;;-4.20;99.90;;;;;;5068726;28;20020;-46
2021/12/25 10:11:56;;;;;;;4.13;1.98;;;-4.10;99.90;;;;;;5084821;28;20386;-47
2021/12/25 10:14:22;;;;;;;9.23;1.52;;;-4.10;99.90;;;;;;5069619;28;20028;-46
2021/12/25 10:16:47;;;;;;;4.95;3.00;;;-4.00;99.90;;;;;;5069660;28;20024;-48
2021/12/25 10:19:20;;;;;;;2.13;1.40;;;-4.00;99.90;;;;;;5068645;28;20103;-46
2021/12/25 10:21:46;;;;;;;4.78;1.90;;;-3.90;99.90;;;;;;5069402;28;20052;-45
2021/12/25 10:24:17;;;;;;;6.88;2.47;;;-3.90;99.90;;;;;;5068978;28;20090;-45
2021/12/25 10:26:47;;;;;;;5.38;2.05;;;-3.80;99.90;;;;;;5069152;28;20048;-45
2021/12/25 10:29:28;;;;;;;3.60;1.80;;;-3.70;99.90;;;;;;5068986;28;20098;-45
2021/12/25 10:31:59;;;;;;;4.15;1.98;;;-3.70;99.90;;;;;;5080699;28;20032;-45
2021/12/25 10:34:29;;;;;;;3.53;1.70;;;-3.50;99.90;;;;;;5070426;28;20031;-45
2021/12/25 10:37:05;;;;;;;3.67;1.60;;;-3.40;99.90;;;;;;5068710;28;20090;-45
2021/12/25 10:39:31;;;;;;;2.53;1.67;;;-3.30;99.90;;;;;;5068566;28;20105;-46
2021/12/25 10:42:15;;;;;;;3.75;2.28;;;-3.10;99.90;;;;;;5068631;28;20475;-44
2021/12/25 10:44:42;;;;;;;5.07;2.63;;;-2.80;99.90;;;;;;5068385;28;20385;-48
2021/12/25 10:47:11;;;;;;;4.15;1.80;;;-2.30;99.90;;;;;;5060212;28;20023;-45
2021/12/25 10:49:46;;;;;;;5.22;1.90;;;-0.90;99.90;;;;;;5062472;28;20040;-46
2021/12/25 10:52:46;;;;;;;6.30;1.70;;;1.10;99.90;;;;;;5067863;28;20040;-46
2021/12/25 10:55:23;;;;;;;4.15;2.00;;;3.00;98.80;;;;;;5059255;28;20287;-46
2021/12/25 10:57:52;;;;;;;3.92;1.92;;;4.50;95.90;;;;;;5063108;28;20413;-45
2021/12/25 11:00:21;;;;;;;4.43;1.80;;;5.40;92.00;;;;;;5071892;28;20099;-46
2021/12/25 11:02:57;;;;;;;2.67;1.80;;;6.30;87.80;;;;;;5063018;28;20051;-47
2021/12/25 11:05:24;;;;;;;2.63;2.00;;;6.70;84.10;;;;;;5062653;28;20025;-46
2021/12/25 11:08:05;;;;;;;4.70;3.10;;;7.10;75.60;;;;;;5067125;28;20631;-46
2021/12/25 11:10:31;;;;;;;3.47;2.10;;;7.40;76.50;;;;;;5059684;28;20029;-46
2021/12/25 11:12:58;;;;;;;5.22;1.95;;;7.60;70.60;;;;;;5061699;28;20024;-46
2021/12/25 11:15:30;;;;;;;3.75;2.30;;;7.30;73.50;;;;;;5060443;28;20036;-47
2021/12/25 11:18:05;;;;;;;4.38;2.40;;;6.10;69.30;;;;;;5046379;28;20466;-46
2021/12/25 11:20:34;;;;;;;3.17;2.10;;;4.90;73.80;;;;;;5048468;28;20021;-46
2021/12/25 11:23:05;;;;;;;4.65;2.33;;;3.90;75.80;;;;;;5059904;28;20028;-45
2021/12/25 11:25:32;;;;;;;4.35;2.15;;;2.80;80.80;;;;;;5054607;28;20119;-47
2021/12/25 11:27:59;;;;;;;3.55;2.05;;;1.90;85.10;;;;;;5060499;28;20178;-47
2021/12/25 11:30:28;;;;;;;4.82;2.30;;;1.20;89.10;;;;;;5064316;28;20028;-46
2021/12/25 11:32:55;;;;;;;4.28;2.40;;;0.80;92.00;;;;;;5050274;28;20021;-45
2021/12/25 11:35:21;;;;;;;4.60;2.20;;;0.30;94.00;;;;;;5052690;28;20029;-45
2021/12/25 11:37:49;;;;;;;6.10;2.05;;;-0.10;95.80;;;;;;5050221;28;20497;-45
2021/12/25 11:40:16;;;;;;;4.60;1.98;;;-0.20;97.70;;;;;;5052577;28;20039;-45
2021/12/25 11:42:52;;;;;;;7.20;2.40;;;-0.50;97.60;;;;;;5061116;28;20339;-45
2021/12/25 11:45:23;;;;;;;5.43;1.90;;;-0.80;98.00;;;;;;5062092;28;20025;-45
2021/12/25 11:47:53;;;;;;;4.80;2.15;;;-1.10;99.90;;;;;;5059406;28;20054;-46
2021/12/25 11:50:31;;;;;;;3.50;1.88;;;-1.30;99.90;;;;;;5075824;28;20032;-45
2021/12/25 11:53:09;;;;;;;4.55;2.28;;;-1.30;99.90;;;;;;5057753;28;20414;-45
2021/12/25 11:58:36;;;;;;;5.18;1.92;;;-1.50;99.90;;;;;;5053450;28;20036;-45
2021/12/25 12:01:15;;;;;;;2.65;1.70;;;-1.50;99.90;;;;;;5057486;28;20238;-45
2021/12/25 12:03:46;;;;;;;7.85;2.05;;;-1.50;99.90;;;;;;5059842;28;20025;-45
2021/12/25 12:06:14;;;;;;;4.45;1.77;;;-1.50;99.90;;;;;;5063882;28;20029;-46
2021/12/25 12:08:55;;;;;;;4.40;1.90;;;-1.60;99.90;;;;;;5062363;28;20016;-45
2021/12/25 12:11:23;;;;;;;6.07;1.98;;;-1.70;99.90;;;;;;5065246;28;20065;-45
2021/12/25 12:14:18;;;;;;;3.85;1.80;;;-1.70;99.90;;;;;;5064735;28;20063;-45
2021/12/25 12:16:48;;;;;;;4.55;1.33;;;-1.70;99.90;;;;;;5063715;28;20020;-44
2021/12/25 12:19:41;;;;;;;3.08;1.60;;;-1.70;99.90;;;;;;5060781;28;20021;-44
2021/12/25 12:22:21;;;;;;;2.05;1.45;;;-1.80;99.90;;;;;;5059577;28;20043;-45
2021/12/25 12:26:00;;;;;;;6.57;1.38;;;-1.80;99.90;;;;;;5060004;28;20021;-44
2021/12/25 12:27:52;;;;;;;;;;;-1.90;99.90;;;;;;5052116;28;20024;-45
2021/12/25 12:30:37;;;;;;;3.75;1.52;;;-2.10;99.90;;;;;;5068928;28;19912;-44
2021/12/25 12:33:22;;;;;;;2.92;1.20;;;-2.10;99.90;;;;;;5065399;28;20062;-44
2021/12/25 12:35:50;;;;;;;5.18;1.08;;;-2.20;99.90;;;;;;5061833;28;20131;-44
2021/12/25 12:38:37;;;;;;;5.97;1.50;;;-2.10;99.90;;;;;;5061451;28;20154;-44
2021/12/25 12:41:30;;;;;;;2.78;1.42;;;-2.10;99.90;;;;;;5068003;28;20028;-44
2021/12/25 12:44:04;;;;;;;4.78;1.40;;;-2.10;99.90;;;;;;5069352;28;20099;-44
2021/12/25 12:46:48;;;;;;;3.40;1.40;;;-2.10;99.90;;;;;;5068156;28;20025;-44
2021/12/25 12:49:19;;;;;;;4.10;1.20;;;-2.20;99.90;;;;;;5062780;28;20063;-44
2021/12/25 12:51:46;;;;;;;4.15;1.63;;;-2.20;99.90;;;;;;5069040;28;20028;-46
2021/12/25 12:54:58;;;;;;;3.63;1.40;;;-2.20;99.90;;;;;;5068283;28;20093;-45
2021/12/25 12:57:25;;;;;;;6.25;1.70;;;-2.30;99.90;;;;;;5058200;28;20029;-44
2021/12/25 12:59:54;;;;;;;6.15;1.65;;;-2.20;99.90;;;;;;5068919;28;20016;-45
2021/12/25 13:02:21;;;;;;;4.78;1.48;;;-2.30;99.90;;;;;;5067883;28;20031;-45
2021/12/25 13:05:00;;;;;;;2.13;1.20;;;-2.30;99.90;;;;;;5064718;28;20124;-44
2021/12/25 13:07:29;;;;;;;5.85;1.40;;;-2.30;99.90;;;;;;5068321;28;20021;-45
2021/12/25 13:10:04;;;;;;;2.25;1.27;;;-2.30;99.90;;;;;;5066657;28;20073;-44
2021/12/25 13:15:01;;;;;;;2.10;1.55;;;-2.40;99.90;;;;;;5069315;28;20365;-44
2021/12/25 13:17:27;;;;;;;4.28;1.25;;;-2.40;99.90;;;;;;5068924;28;20107;-44
2021/12/25 13:19:53;;;;;;;2.65;1.65;;;-2.30;99.90;;;;;;5084557;28;20563;-44
2021/12/25 13:22:19;;;;;;;2.15;1.50;;;-2.40;99.90;;;;;;5067826;28;20127;-44
2021/12/25 13:24:44;;;;;;;8.65;1.65;;;-2.40;99.90;;;;;;5068012;28;20417;-45
2021/12/25 13:27:18;;;;;;;5.28;1.95;;;-2.50;99.90;;;;;;5058649;28;20072;-44
2021/12/25 13:29:43;;;;;;;4.43;1.60;;;-2.50;99.90;;;;;;5063078;28;20272;-45
2021/12/25 13:32:09;;;;;;;2.35;1.48;;;-2.50;99.90;;;;;;5065411;28;20512;-44
2021/12/25 13:34:39;;;;;;;6.05;1.58;;;-2.60;99.90;;;;;;5064774;28;20036;-45
2021/12/25 13:37:09;;;;;;;7.60;1.65;;;-2.60;99.90;;;;;;5079876;28;20445;-44
2021/12/25 13:39:38;;;;;;;2.40;1.20;;;-2.60;99.90;;;;;;5063514;28;20404;-45
2021/12/25 13:42:10;;;;;;;2.45;1.10;;;-2.70;99.90;;;;;;5079082;28;20029;-45
2021/12/25 13:44:39;;;;;;;3.08;1.52;;;-2.60;99.90;;;;;;5068971;28;20021;-44
2021/12/25 13:47:21;;;;;;;3.40;1.23;;;-2.70;99.90;;;;;;5065960;28;20119;-44
2021/12/25 13:50:00;;;;;;;1.52;1.10;;;-2.60;99.90;;;;;;5060356;28;20029;-44
2021/12/25 13:52:35;;;;;;;3.22;1.73;;;-2.60;99.90;;;;;;5063355;28;20039;-44
2021/12/25 13:55:14;;;;;;;6.22;1.40;;;-2.60;99.90;;;;;;5068724;28;20032;-45
2021/12/25 13:57:49;;;;;;;3.92;1.20;;;-2.70;99.90;;;;;;5068358;28;20028;-45
2021/12/25 14:00:20;;;;;;;3.15;1.20;;;-2.70;99.90;;;;;;5073770;28;20445;-45
2021/12/25 14:02:49;;;;;;;14.88;1.88;;;-2.70;99.90;;;;;;5073844;28;20512;-46
2021/12/25 14:05:16;;;;;;;1.83;1.42;;;-2.70;99.90;;;;;;5068613;28;20036;-46
2021/12/25 14:07:43;;;;;;;6.50;1.85;;;-2.70;99.90;;;;;;5067840;28;20060;-45
2021/12/25 14:10:14;;;;;;;2.67;1.10;;;-2.80;99.90;;;;;;5067279;28;20044;-46